Time;durP1;ratioP1;P1;durP2;ratioP2;P2;SDS_P1;SDS_P2;PMS_P1;PMS_P2;Temp;Humidity;BMP_temperature;BMP_pressure;BME280_temperature;BME280_humidity;BME280_pressure;Samples;Min_cycle;Max_cycle;Signal;HPM_P1;HPM_P2
2023/08/18 00:01:32;;;;;;;2.42;2.22;;;17.20;99.90;;;;;;5108226;28;20051;-58
2023/08/18 00:03:58;;;;;;;2.60;2.30;;;17.10;99.90;;;;;;5108032;28;20055;-59
2023/08/18 00:06:24;;;;;;;3.38;2.45;;;17.10;99.90;;;;;;5105935;28;20044;-58
2023/08/18 00:08:50;;;;;;;2.92;2.60;;;17.10;99.90;;;;;;5107617;28;20039;-58
2023/08/18 00:11:19;;;;;;;3.17;2.28;;;17.00;99.90;;;;;;5107829;27;20040;-57
2023/08/18 00:13:44;;;;;;;5.28;2.55;;;17.00;99.90;;;;;;5079873;28;20060;-58
2023/08/18 00:16:10;;;;;;;4.05;2.50;;;16.90;99.90;;;;;;5108555;28;20059;-57
2023/08/18 00:18:36;;;;;;;2.70;2.38;;;16.90;99.90;;;;;;5109256;28;20027;-56
2023/08/18 00:21:01;;;;;;;5.25;2.50;;;16.80;99.90;;;;;;5105734;28;20036;-58
2023/08/18 00:23:27;;;;;;;3.17;2.67;;;16.70;99.90;;;;;;5110533;28;20046;-57
2023/08/18 00:25:53;;;;;;;3.75;2.42;;;16.70;99.90;;;;;;5089129;28;20035;-59
2023/08/18 00:28:19;;;;;;;5.72;2.60;;;16.70;99.90;;;;;;5108099;28;20272;-59
2023/08/18 00:30:45;;;;;;;3.42;2.28;;;16.70;99.90;;;;;;5109219;28;20127;-59
2023/08/18 00:33:11;;;;;;;2.70;2.50;;;16.60;99.90;;;;;;5108631;28;20047;-59
2023/08/18 00:35:37;;;;;;;3.25;2.20;;;16.60;99.90;;;;;;5116264;27;20055;-57
2023/08/18 00:38:03;;;;;;;4.80;2.60;;;16.50;99.90;;;;;;5102899;28;20059;-59
2023/08/18 00:40:28;;;;;;;3.22;2.60;;;16.50;99.90;;;;;;5117260;27;20058;-56
2023/08/18 00:42:54;;;;;;;3.80;2.38;;;16.50;99.90;;;;;;5115391;27;20039;-59
2023/08/18 00:45:21;;;;;;;3.40;2.40;;;16.50;99.90;;;;;;5096983;28;20097;-58
2023/08/18 00:47:48;;;;;;;3.53;2.72;;;16.40;99.90;;;;;;5096987;28;20047;-59
2023/08/18 00:50:15;;;;;;;3.10;2.40;;;16.40;99.90;;;;;;5115976;27;20044;-59
2023/08/18 00:52:42;;;;;;;4.18;2.55;;;16.40;99.90;;;;;;5113900;27;20044;-59
2023/08/18 00:55:10;;;;;;;4.25;2.80;;;16.40;99.90;;;;;;5115162;27;20099;-58
2023/08/18 00:57:36;;;;;;;5.10;2.55;;;16.30;99.90;;;;;;5095799;28;20116;-58
2023/08/18 01:00:02;;;;;;;5.20;2.40;;;16.40;99.90;;;;;;5115250;27;20424;-59
2023/08/18 01:02:29;;;;;;;4.47;3.00;;;16.40;99.90;;;;;;5105940;27;21002;-57
2023/08/18 01:05:00;;;;;;;3.55;2.65;;;16.40;99.90;;;;;;5107896;27;20032;-59
2023/08/18 01:07:27;;;;;;;5.05;2.90;;;16.40;99.90;;;;;;5115610;27;20900;-59
2023/08/18 01:09:54;;;;;;;3.67;2.38;;;16.40;99.90;;;;;;5110657;27;20035;-59
2023/08/18 01:12:45;;;;;;;3.70;2.78;;;16.40;99.90;;;;;;5114277;27;20047;-55
2023/08/18 01:15:13;;;;;;;5.03;2.85;;;16.40;99.90;;;;;;5114326;27;20084;-56
2023/08/18 01:17:54;;;;;;;4.40;3.00;;;16.40;99.90;;;;;;5113761;27;20482;-59
2023/08/18 01:20:22;;;;;;;3.95;2.95;;;16.40;99.90;;;;;;5113744;27;20048;-57
2023/08/18 01:23:01;;;;;;;3.53;2.92;;;16.40;99.90;;;;;;5114417;27;20031;-59
2023/08/18 01:25:27;;;;;;;6.70;3.22;;;16.40;99.90;;;;;;5113158;27;20126;-59
2023/08/18 01:27:55;;;;;;;6.53;3.08;;;16.40;99.90;;;;;;5113914;27;20039;-59
2023/08/18 01:30:23;;;;;;;3.67;2.67;;;16.50;99.90;;;;;;5084304;28;20035;-59
2023/08/18 01:33:11;;;;;;;4.90;3.13;;;16.40;99.90;;;;;;5084018;27;20047;-57
2023/08/18 01:35:38;;;;;;;4.28;3.30;;;16.50;99.90;;;;;;5114219;27;20032;-60
2023/08/18 01:38:06;;;;;;;4.55;3.38;;;16.50;99.90;;;;;;5112712;27;20132;-59
2023/08/18 01:40:32;;;;;;;3.95;2.97;;;16.50;99.90;;;;;;5113933;27;20044;-59
2023/08/18 01:42:59;;;;;;;3.53;2.90;;;16.50;99.90;;;;;;5113504;27;20043;-59
2023/08/18 01:45:25;;;;;;;6.00;3.20;;;16.50;99.90;;;;;;5112835;27;20063;-58
2023/08/18 01:47:50;;;;;;;6.65;3.20;;;16.50;99.90;;;;;;5110846;27;20046;-58
2023/08/18 01:50:16;;;;;;;4.03;3.00;;;16.50;99.90;;;;;;5112300;27;20051;-59
2023/08/18 01:52:42;;;;;;;3.50;3.20;;;16.50;99.90;;;;;;5112188;28;20107;-56
2023/08/18 01:55:08;;;;;;;5.90;3.20;;;16.60;99.90;;;;;;5111676;28;20036;-58
2023/08/18 01:57:33;;;;;;;5.25;3.50;;;16.50;99.90;;;;;;5110747;28;20028;-58
2023/08/18 01:59:59;;;;;;;4.15;3.15;;;16.50;99.90;;;;;;5112615;28;20174;-59
2023/08/18 02:02:25;;;;;;;4.53;3.60;;;16.60;99.90;;;;;;5112234;27;20048;-59
2023/08/18 02:04:50;;;;;;;7.63;3.47;;;16.60;99.90;;;;;;5111707;28;20039;-58
2023/08/18 02:07:16;;;;;;;4.40;3.42;;;16.60;99.90;;;;;;5112907;27;20035;-59
2023/08/18 02:09:42;;;;;;;3.40;3.10;;;16.50;99.90;;;;;;5112534;28;20035;-58
2023/08/18 02:12:08;;;;;;;6.10;3.53;;;16.60;99.90;;;;;;5111348;27;20123;-59
2023/08/18 02:14:34;;;;;;;7.97;3.88;;;16.50;99.90;;;;;;5096739;28;20460;-59
2023/08/18 02:16:59;;;;;;;5.57;3.45;;;16.50;99.90;;;;;;5112405;27;20051;-57
2023/08/18 02:19:25;;;;;;;4.80;3.70;;;16.50;99.90;;;;;;5111357;28;20032;-56
2023/08/18 02:21:51;;;;;;;4.57;3.50;;;16.50;99.90;;;;;;5113002;28;20051;-59
2023/08/18 02:24:17;;;;;;;4.50;3.67;;;16.50;99.90;;;;;;5111496;27;20039;-59
2023/08/18 02:26:42;;;;;;;6.57;3.63;;;16.50;99.90;;;;;;5112006;28;20063;-59
2023/08/18 02:29:08;;;;;;;5.10;3.72;;;16.50;99.90;;;;;;5092939;28;20058;-58
2023/08/18 02:31:34;;;;;;;6.82;4.00;;;16.40;99.90;;;;;;5110543;27;20559;-59
2023/08/18 02:33:59;;;;;;;5.40;3.50;;;16.40;99.90;;;;;;5110857;27;20036;-59
2023/08/18 02:36:25;;;;;;;4.82;3.95;;;16.40;99.90;;;;;;5110467;28;20048;-59
2023/08/18 02:38:51;;;;;;;5.40;3.60;;;16.40;99.90;;;;;;5111997;27;20497;-59
2023/08/18 02:41:19;;;;;;;5.60;3.60;;;16.50;99.90;;;;;;5108564;28;20048;-59
2023/08/18 02:43:48;;;;;;;5.10;3.83;;;16.50;99.90;;;;;;5108153;28;20058;-59
2023/08/18 02:46:14;;;;;;;4.63;3.17;;;16.50;99.90;;;;;;5110275;27;20097;-59
2023/08/18 02:48:40;;;;;;;6.10;3.55;;;16.50;99.90;;;;;;5090593;28;20040;-60
2023/08/18 02:51:07;;;;;;;3.72;3.33;;;16.50;99.90;;;;;;5107076;28;20051;-56
2023/08/18 02:53:34;;;;;;;7.57;3.80;;;16.50;99.90;;;;;;5089997;27;20065;-56
2023/08/18 02:56:00;;;;;;;5.82;3.78;;;16.50;99.90;;;;;;5090216;28;20526;-58
2023/08/18 02:58:27;;;;;;;4.18;3.30;;;16.50;99.90;;;;;;5108990;27;20589;-58
2023/08/18 03:01:00;;;;;;;5.00;3.65;;;16.50;99.90;;;;;;5091279;27;20478;-59
2023/08/18 03:03:26;;;;;;;4.85;3.47;;;16.60;99.90;;;;;;5103697;28;20071;-59
2023/08/18 03:05:52;;;;;;;4.40;3.50;;;16.60;99.90;;;;;;5108024;27;20043;-59
2023/08/18 03:08:18;;;;;;;5.38;3.53;;;16.60;99.90;;;;;;5107435;27;20055;-54
2023/08/18 03:10:52;;;;;;;3.95;3.40;;;16.60;99.90;;;;;;5090860;28;20040;-59
2023/08/18 03:13:18;;;;;;;5.90;3.92;;;16.60;99.90;;;;;;5095682;28;20027;-59
2023/08/18 03:15:44;;;;;;;5.40;3.90;;;16.60;99.90;;;;;;5072053;28;20042;-58
2023/08/18 03:18:10;;;;;;;5.13;3.75;;;16.60;99.90;;;;;;5107970;27;20111;-58
2023/08/18 03:20:35;;;;;;;5.70;3.80;;;16.60;99.90;;;;;;5107810;28;20040;-59
2023/08/18 03:23:01;;;;;;;5.10;4.05;;;16.60;99.90;;;;;;5108704;28;20082;-59
2023/08/18 03:25:27;;;;;;;4.18;3.78;;;16.60;99.90;;;;;;5090166;28;20052;-59
2023/08/18 03:27:52;;;;;;;4.78;3.72;;;16.60;99.90;;;;;;5107822;27;20040;-59
2023/08/18 03:30:18;;;;;;;4.53;3.83;;;16.70;99.90;;;;;;5107364;27;20112;-58
2023/08/18 03:32:44;;;;;;;4.47;3.97;;;16.60;99.90;;;;;;5108854;28;20155;-60
2023/08/18 03:35:10;;;;;;;6.75;4.10;;;16.60;99.90;;;;;;5109275;28;20244;-59
2023/08/18 03:37:35;;;;;;;5.72;3.97;;;16.60;99.90;;;;;;5096375;27;20048;-57
2023/08/18 03:40:04;;;;;;;4.43;3.85;;;16.60;99.90;;;;;;5069513;28;20045;-59
2023/08/18 03:42:30;;;;;;;6.00;4.18;;;16.60;99.90;;;;;;5088936;28;20046;-59
2023/08/18 03:44:55;;;;;;;7.22;4.57;;;16.60;99.90;;;;;;5069397;28;20056;-59
2023/08/18 03:47:21;;;;;;;6.25;4.63;;;16.60;99.90;;;;;;5086425;28;20036;-59
2023/08/18 03:49:47;;;;;;;6.70;4.60;;;16.60;99.90;;;;;;5071159;28;20078;-59
2023/08/18 03:52:12;;;;;;;5.85;4.53;;;16.70;99.90;;;;;;5088939;28;20530;-59
2023/08/18 03:54:38;;;;;;;6.80;4.70;;;16.70;99.90;;;;;;5088403;28;20041;-59
2023/08/18 03:57:04;;;;;;;7.57;5.05;;;16.70;99.90;;;;;;5087306;28;20066;-59
2023/08/18 03:59:30;;;;;;;5.25;4.55;;;16.70;99.90;;;;;;5087155;28;20069;-57
2023/08/18 04:01:55;;;;;;;7.50;4.90;;;16.70;99.90;;;;;;5088966;28;20204;-60
2023/08/18 04:04:21;;;;;;;8.38;4.40;;;16.70;99.90;;;;;;5085220;28;20104;-57
2023/08/18 04:06:47;;;;;;;6.47;4.72;;;16.70;99.90;;;;;;5059958;28;20051;-59
2023/08/18 04:09:15;;;;;;;8.23;5.07;;;16.70;99.90;;;;;;5086168;28;20040;-57
2023/08/18 04:11:43;;;;;;;6.97;5.13;;;16.70;99.90;;;;;;5071407;28;20066;-59
2023/08/18 04:14:09;;;;;;;8.60;5.75;;;16.70;99.90;;;;;;5088394;28;20066;-59
2023/08/18 04:16:35;;;;;;;7.32;4.95;;;16.70;99.90;;;;;;5086935;28;20042;-58
2023/08/18 04:19:01;;;;;;;6.43;5.28;;;16.80;99.90;;;;;;5087084;28;20123;-59
2023/08/18 04:21:27;;;;;;;7.80;5.18;;;16.80;99.90;;;;;;5087399;28;20052;-59
2023/08/18 04:23:53;;;;;;;6.13;4.60;;;16.80;99.90;;;;;;5086953;28;20040;-59
2023/08/18 04:26:19;;;;;;;10.70;5.32;;;16.80;99.90;;;;;;5089096;28;20049;-58
2023/08/18 04:28:46;;;;;;;6.35;4.82;;;16.80;99.90;;;;;;5090099;28;20054;-59
2023/08/18 04:31:12;;;;;;;7.15;5.28;;;16.80;99.90;;;;;;5087851;28;20052;-58
2023/08/18 04:33:38;;;;;;;8.93;5.25;;;16.80;99.90;;;;;;5087005;28;20072;-58
2023/08/18 04:36:04;;;;;;;8.05;5.40;;;16.90;99.90;;;;;;5070460;28;20048;-59
2023/08/18 04:38:31;;;;;;;8.52;5.63;;;16.90;99.90;;;;;;5106825;28;20064;-56
2023/08/18 04:41:06;;;;;;;8.15;5.35;;;16.90;99.90;;;;;;5109204;28;20398;-57
2023/08/18 04:43:33;;;;;;;8.55;5.13;;;16.90;99.90;;;;;;5106512;28;20478;-58
2023/08/18 04:45:59;;;;;;;9.15;5.57;;;16.90;99.90;;;;;;5106007;28;20046;-58
2023/08/18 04:48:25;;;;;;;8.02;5.78;;;16.90;99.90;;;;;;5094687;28;20035;-57
2023/08/18 04:50:50;;;;;;;8.57;5.28;;;16.90;99.90;;;;;;5106614;28;20047;-58
2023/08/18 04:53:16;;;;;;;8.05;6.15;;;16.90;99.90;;;;;;5093894;28;20912;-57
2023/08/18 04:55:43;;;;;;;7.65;5.45;;;17.00;99.90;;;;;;5105007;28;20032;-59
2023/08/18 04:58:12;;;;;;;7.18;5.57;;;17.00;99.90;;;;;;5093873;28;20104;-59
2023/08/18 05:00:41;;;;;;;9.43;5.65;;;17.00;99.90;;;;;;5105179;28;20082;-57
2023/08/18 05:03:07;;;;;;;9.80;5.72;;;17.00;99.90;;;;;;5108062;28;20036;-59
2023/08/18 05:05:56;;;;;;;8.45;5.32;;;17.00;99.90;;;;;;5106091;28;20032;-57
2023/08/18 05:08:21;;;;;;;10.60;5.75;;;17.00;99.90;;;;;;5089389;28;20070;-58
2023/08/18 05:10:47;;;;;;;8.98;5.75;;;17.10;99.90;;;;;;5085696;28;20040;-59
2023/08/18 05:13:13;;;;;;;8.38;5.57;;;17.10;99.90;;;;;;5105407;28;20050;-59
2023/08/18 05:15:39;;;;;;;9.75;5.63;;;17.10;99.90;;;;;;5070329;28;20060;-59
2023/08/18 05:18:05;;;;;;;6.95;5.10;;;17.10;99.90;;;;;;5105293;28;20532;-58
2023/08/18 05:20:30;;;;;;;6.57;5.03;;;17.10;99.90;;;;;;5105079;28;20039;-58
2023/08/18 05:22:56;;;;;;;8.43;4.80;;;17.10;99.90;;;;;;5108862;28;20106;-59
2023/08/18 05:25:22;;;;;;;9.45;4.47;;;17.10;99.90;;;;;;5108582;27;20047;-56
2023/08/18 05:27:48;;;;;;;9.45;4.60;;;17.20;99.90;;;;;;5107353;27;20045;-58
2023/08/18 05:30:13;;;;;;;8.35;4.65;;;17.10;99.90;;;;;;5107718;28;20048;-59
2023/08/18 05:32:39;;;;;;;8.85;4.57;;;17.20;99.90;;;;;;5109482;28;20363;-60
2023/08/18 05:35:06;;;;;;;8.15;4.70;;;17.20;99.90;;;;;;5106540;27;20039;-57
2023/08/18 05:37:31;;;;;;;6.75;4.72;;;17.20;99.90;;;;;;5108197;27;20048;-60
2023/08/18 05:39:57;;;;;;;8.13;4.35;;;17.20;99.90;;;;;;5106793;28;20046;-59
2023/08/18 05:42:23;;;;;;;7.85;4.25;;;17.30;99.90;;;;;;5108986;27;20043;-60
2023/08/18 05:44:48;;;;;;;9.68;4.32;;;17.30;99.90;;;;;;5104929;28;20040;-59
2023/08/18 05:47:14;;;;;;;7.05;4.20;;;17.30;99.90;;;;;;5110468;27;20046;-58
2023/08/18 05:49:40;;;;;;;7.93;4.35;;;17.30;99.90;;;;;;5097763;27;20099;-59
2023/08/18 05:52:06;;;;;;;9.20;4.32;;;17.40;99.90;;;;;;5106004;28;20151;-59
2023/08/18 05:54:31;;;;;;;7.65;4.28;;;17.30;99.90;;;;;;5106498;28;20035;-59
2023/08/18 05:56:57;;;;;;;9.80;4.50;;;17.40;99.90;;;;;;5108686;28;20624;-59
2023/08/18 05:59:23;;;;;;;10.85;4.93;;;17.40;99.90;;;;;;5110752;27;20040;-59
2023/08/18 06:01:50;;;;;;;10.75;4.90;;;17.40;99.90;;;;;;5089329;28;20056;-59
2023/08/18 06:04:15;;;;;;;10.15;4.50;;;17.30;99.90;;;;;;5089611;28;20048;-59
2023/08/18 06:06:41;;;;;;;7.40;4.32;;;17.40;99.90;;;;;;5107105;28;20204;-59
2023/08/18 06:09:07;;;;;;;6.45;4.43;;;17.40;99.90;;;;;;5108604;28;20405;-56
2023/08/18 06:11:33;;;;;;;8.07;4.53;;;17.40;99.90;;;;;;5109037;27;20093;-58
2023/08/18 06:13:59;;;;;;;13.63;4.30;;;17.40;99.90;;;;;;5107488;28;20040;-57
2023/08/18 06:16:25;;;;;;;7.25;4.00;;;17.40;99.90;;;;;;5109974;27;20101;-60
2023/08/18 06:18:50;;;;;;;10.88;4.28;;;17.40;99.90;;;;;;5108658;27;20760;-59
2023/08/18 06:21:16;;;;;;;5.43;4.15;;;17.50;99.90;;;;;;5109171;28;20036;-60
2023/08/18 06:23:42;;;;;;;14.98;4.60;;;17.50;99.90;;;;;;5088731;28;20051;-60
2023/08/18 06:26:08;;;;;;;11.85;4.28;;;17.50;99.90;;;;;;5107143;27;20044;-59
2023/08/18 06:28:33;;;;;;;8.25;4.18;;;17.60;99.90;;;;;;5107783;27;20060;-58
2023/08/18 06:31:06;;;;;;;8.85;4.60;;;17.50;99.90;;;;;;5108218;27;20160;-59
2023/08/18 06:33:34;;;;;;;9.20;4.43;;;17.60;99.90;;;;;;5109037;28;20036;-60
2023/08/18 06:36:00;;;;;;;8.70;4.70;;;17.60;99.90;;;;;;5107336;28;20096;-59
2023/08/18 06:38:26;;;;;;;8.48;5.32;;;17.70;99.90;;;;;;5109901;28;20056;-58
2023/08/18 06:40:51;;;;;;;17.45;5.00;;;17.70;99.90;;;;;;5106480;28;20050;-60
2023/08/18 06:43:17;;;;;;;15.35;5.40;;;17.70;99.90;;;;;;5087792;28;20051;-60
2023/08/18 06:45:43;;;;;;;8.50;4.60;;;17.70;99.90;;;;;;5106066;28;20040;-60
2023/08/18 06:48:08;;;;;;;11.63;4.78;;;17.80;99.90;;;;;;5108966;27;20043;-59
2023/08/18 06:50:34;;;;;;;9.10;5.07;;;17.90;99.90;;;;;;5107585;28;20062;-59
2023/08/18 06:53:00;;;;;;;12.15;4.78;;;17.90;99.90;;;;;;5105842;28;20050;-59
2023/08/18 06:55:25;;;;;;;11.07;4.78;;;17.90;99.90;;;;;;5108521;28;20035;-60
2023/08/18 06:57:51;;;;;;;11.48;4.38;;;18.00;99.90;;;;;;5077811;28;20039;-59
2023/08/18 07:00:19;;;;;;;9.82;4.40;;;18.00;99.90;;;;;;5108176;27;21067;-58
2023/08/18 07:02:44;;;;;;;7.82;4.88;;;18.00;99.90;;;;;;5109312;27;20063;-58
2023/08/18 07:05:12;;;;;;;7.03;4.43;;;18.00;99.90;;;;;;5109281;28;20043;-59
2023/08/18 07:07:39;;;;;;;9.20;5.00;;;18.00;99.90;;;;;;5108027;28;20043;-59
2023/08/18 07:10:05;;;;;;;9.25;4.90;;;18.00;99.90;;;;;;5078161;28;20107;-59
2023/08/18 07:12:33;;;;;;;10.50;5.45;;;18.10;99.90;;;;;;5107443;28;20131;-56
2023/08/18 07:14:59;;;;;;;11.88;5.50;;;18.10;99.90;;;;;;5073989;27;20077;-59
2023/08/18 07:17:24;;;;;;;12.05;6.05;;;18.20;99.90;;;;;;5097498;28;20108;-60
2023/08/18 07:19:50;;;;;;;10.07;5.75;;;18.20;99.90;;;;;;5108871;27;20065;-59
2023/08/18 07:22:16;;;;;;;13.40;5.90;;;18.20;99.90;;;;;;5106912;28;20043;-58
2023/08/18 07:24:42;;;;;;;8.73;6.28;;;18.20;99.90;;;;;;5107863;27;20047;-59
2023/08/18 07:27:07;;;;;;;9.10;6.22;;;18.20;99.90;;;;;;5094190;28;20039;-57
2023/08/18 07:29:34;;;;;;;11.85;6.30;;;18.20;99.90;;;;;;5110523;28;20046;-60
2023/08/18 07:32:00;;;;;;;11.27;5.85;;;18.20;99.90;;;;;;5107583;28;20070;-59
2023/08/18 07:34:26;;;;;;;13.18;6.60;;;18.30;99.90;;;;;;5107626;28;20043;-59
2023/08/18 07:36:53;;;;;;;11.90;6.50;;;18.30;99.90;;;;;;5107065;27;20055;-60
2023/08/18 07:39:19;;;;;;;11.15;6.32;;;18.30;99.90;;;;;;5108679;28;20487;-59
2023/08/18 07:41:45;;;;;;;12.57;6.53;;;18.30;99.90;;;;;;5107846;27;20101;-60
2023/08/18 07:44:11;;;;;;;14.30;6.75;;;18.40;99.90;;;;;;5089601;27;20051;-59
2023/08/18 07:46:37;;;;;;;11.02;6.60;;;18.40;99.90;;;;;;5109866;27;20039;-60
2023/08/18 07:49:03;;;;;;;12.00;6.70;;;18.40;99.90;;;;;;5107314;27;20043;-59
2023/08/18 07:51:30;;;;;;;12.07;6.40;;;18.40;99.90;;;;;;5106887;27;20042;-57
2023/08/18 07:53:56;;;;;;;12.65;6.20;;;18.40;99.90;;;;;;5107231;27;20055;-59
2023/08/18 07:56:22;;;;;;;12.40;6.63;;;18.40;99.90;;;;;;5108503;27;20166;-59
2023/08/18 07:58:48;;;;;;;9.27;6.90;;;18.40;99.90;;;;;;5106241;28;20032;-59
2023/08/18 08:01:14;;;;;;;13.77;7.47;;;18.40;99.90;;;;;;5108119;28;20043;-60
2023/08/18 08:03:39;;;;;;;13.02;7.72;;;18.40;99.90;;;;;;5110557;28;20039;-60
2023/08/18 08:06:05;;;;;;;13.15;8.25;;;18.40;99.90;;;;;;5106522;28;20048;-59
2023/08/18 08:08:31;;;;;;;12.32;8.20;;;18.40;99.90;;;;;;5108758;28;20079;-58
2023/08/18 08:10:58;;;;;;;13.82;8.38;;;18.40;99.90;;;;;;5090489;28;20044;-60
2023/08/18 08:13:24;;;;;;;17.08;8.05;;;18.50;99.90;;;;;;5107236;28;20032;-58
2023/08/18 08:15:50;;;;;;;19.40;8.45;;;18.60;99.90;;;;;;5107766;28;20047;-60
2023/08/18 08:18:18;;;;;;;18.10;8.32;;;18.60;99.90;;;;;;5096253;28;21279;-59
2023/08/18 08:20:44;;;;;;;16.15;8.50;;;18.70;99.90;;;;;;5110082;28;20071;-60
2023/08/18 08:23:10;;;;;;;14.20;8.15;;;18.70;99.90;;;;;;5108131;27;20044;-59
2023/08/18 08:25:37;;;;;;;15.82;7.70;;;18.80;99.90;;;;;;5108182;28;20028;-57
2023/08/18 08:28:03;;;;;;;14.73;7.82;;;18.80;99.90;;;;;;5109246;28;20108;-59
2023/08/18 08:30:29;;;;;;;25.58;7.78;;;18.90;99.90;;;;;;5108856;28;20047;-60
2023/08/18 08:32:55;;;;;;;17.77;7.45;;;19.00;99.90;;;;;;5093546;28;20068;-59
2023/08/18 08:35:21;;;;;;;14.82;6.72;;;19.10;99.90;;;;;;5108125;28;20123;-60
2023/08/18 08:37:47;;;;;;;18.40;7.25;;;19.20;99.90;;;;;;5089223;28;20054;-60
2023/08/18 08:40:18;;;;;;;12.63;6.47;;;19.30;99.90;;;;;;5109328;28;20048;-59
2023/08/18 08:42:45;;;;;;;16.75;7.28;;;19.40;99.90;;;;;;5109383;28;20039;-60
2023/08/18 08:45:11;;;;;;;13.20;6.57;;;19.40;99.90;;;;;;5096304;28;20066;-59
2023/08/18 08:47:38;;;;;;;11.73;6.10;;;19.50;99.90;;;;;;5096697;28;20036;-60
2023/08/18 08:50:06;;;;;;;14.20;6.57;;;19.60;99.90;;;;;;5109416;28;20116;-58
2023/08/18 08:52:37;;;;;;;13.80;5.93;;;19.60;99.90;;;;;;5109343;28;20043;-60
2023/08/18 08:55:04;;;;;;;11.77;5.65;;;19.60;99.90;;;;;;5075071;28;20300;-59
2023/08/18 08:57:29;;;;;;;10.90;5.63;;;19.70;99.90;;;;;;5114854;27;20043;-59
2023/08/18 08:59:55;;;;;;;11.20;5.45;;;19.70;99.90;;;;;;5115365;28;20039;-59
2023/08/18 09:02:21;;;;;;;9.82;5.47;;;19.70;99.90;;;;;;5111778;27;20043;-59
2023/08/18 09:04:47;;;;;;;14.93;6.22;;;19.70;99.90;;;;;;5112203;27;20046;-57
2023/08/18 09:07:13;;;;;;;12.07;5.88;;;19.70;99.90;;;;;;5112032;28;20043;-59
2023/08/18 09:09:40;;;;;;;10.02;4.85;;;19.80;99.90;;;;;;5114087;27;20073;-57
2023/08/18 09:12:07;;;;;;;9.48;4.57;;;19.90;99.90;;;;;;5084173;28;20101;-58
2023/08/18 09:14:38;;;;;;;6.97;4.78;;;20.00;99.90;;;;;;5111068;28;20097;-59
2023/08/18 09:17:04;;;;;;;8.50;4.60;;;20.10;99.90;;;;;;5112370;27;20042;-58
2023/08/18 09:19:31;;;;;;;10.80;4.40;;;20.20;99.90;;;;;;5112530;28;20068;-59
2023/08/18 09:21:58;;;;;;;7.97;4.63;;;20.20;99.90;;;;;;5094860;28;20099;-59
2023/08/18 09:24:25;;;;;;;12.23;5.20;;;20.20;99.90;;;;;;5112262;27;20043;-58
2023/08/18 09:26:51;;;;;;;10.57;5.45;;;20.30;99.90;;;;;;5113091;27;20542;-58
2023/08/18 09:29:16;;;;;;;11.85;5.32;;;20.30;99.90;;;;;;5110895;27;20035;-56
2023/08/18 09:31:45;;;;;;;12.38;4.78;;;20.30;99.90;;;;;;5110579;27;20462;-59
2023/08/18 09:34:21;;;;;;;12.07;4.90;;;20.40;99.90;;;;;;5078086;28;20058;-57
2023/08/18 09:36:54;;;;;;;10.73;5.25;;;20.40;99.90;;;;;;5111953;28;20048;-59
2023/08/18 09:39:21;;;;;;;8.15;4.35;;;20.40;99.90;;;;;;5112162;28;20106;-59
2023/08/18 09:41:51;;;;;;;9.45;4.43;;;20.40;99.90;;;;;;5111995;27;20271;-58
2023/08/18 09:44:18;;;;;;;7.00;5.40;;;20.40;99.90;;;;;;5111483;27;20039;-58
2023/08/18 09:46:54;;;;;;;10.73;5.57;;;20.40;99.90;;;;;;5111918;27;20039;-59
2023/08/18 09:49:21;;;;;;;14.43;5.30;;;20.40;99.90;;;;;;5109918;27;20063;-58
2023/08/18 09:52:01;;;;;;;10.27;5.38;;;20.50;99.90;;;;;;5109337;27;20051;-59
2023/08/18 09:54:28;;;;;;;10.48;5.57;;;20.50;99.90;;;;;;5109903;28;20038;-58
2023/08/18 09:56:59;;;;;;;15.38;5.45;;;20.60;99.90;;;;;;5081325;28;20261;-59
2023/08/18 09:59:33;;;;;;;10.93;5.65;;;20.80;99.90;;;;;;5107421;27;20043;-56
2023/08/18 10:01:59;;;;;;;9.48;6.15;;;20.90;99.90;;;;;;5106858;27;20052;-60
2023/08/18 10:04:25;;;;;;;7.28;5.45;;;21.00;99.90;;;;;;5108887;27;20036;-59
2023/08/18 10:06:54;;;;;;;10.05;5.20;;;21.00;99.90;;;;;;5107695;28;20555;-60
2023/08/18 10:09:27;;;;;;;9.57;5.60;;;21.10;99.90;;;;;;5108367;27;20460;-58
2023/08/18 10:11:54;;;;;;;9.23;5.60;;;21.20;99.90;;;;;;5109344;27;20039;-60
2023/08/18 10:14:21;;;;;;;9.73;5.63;;;21.30;99.90;;;;;;5105476;27;20075;-60
2023/08/18 10:16:49;;;;;;;10.57;5.70;;;21.30;99.90;;;;;;5107608;27;20035;-59
2023/08/18 10:19:15;;;;;;;9.68;5.80;;;21.50;99.90;;;;;;5107086;28;20040;-59
2023/08/18 10:21:41;;;;;;;10.57;6.32;;;21.50;99.90;;;;;;5106031;28;20046;-60
2023/08/18 10:24:07;;;;;;;7.28;5.53;;;21.60;99.90;;;;;;5109735;27;20405;-59
2023/08/18 10:26:38;;;;;;;8.68;6.28;;;21.70;99.90;;;;;;5107603;28;20047;-59
2023/08/18 10:29:15;;;;;;;9.32;7.03;;;21.80;99.90;;;;;;5107195;28;20036;-58
2023/08/18 10:31:47;;;;;;;11.45;5.88;;;21.80;99.90;;;;;;5106788;27;20044;-59
2023/08/18 10:34:21;;;;;;;9.27;6.18;;;21.80;99.90;;;;;;5089872;28;20112;-60
2023/08/18 10:36:47;;;;;;;12.20;6.57;;;21.80;99.90;;;;;;5106743;28;20044;-59
2023/08/18 10:39:24;;;;;;;12.18;6.25;;;21.90;99.90;;;;;;5105747;27;20039;-56
2023/08/18 10:42:13;;;;;;;12.05;6.50;;;22.00;99.90;;;;;;5104864;28;20070;-60
2023/08/18 10:45:00;;;;;;;7.70;6.40;;;22.20;99.90;;;;;;5105710;27;20045;-59
2023/08/18 10:47:34;;;;;;;12.40;6.68;;;22.20;99.90;;;;;;5106171;27;21131;-57
2023/08/18 10:50:01;;;;;;;8.90;6.03;;;22.20;99.90;;;;;;5105418;28;20359;-58
2023/08/18 10:52:29;;;;;;;7.70;5.70;;;22.20;99.90;;;;;;5106044;27;20042;-60
2023/08/18 10:54:55;;;;;;;8.00;5.70;;;22.20;99.90;;;;;;5106474;27;20044;-60
2023/08/18 10:57:20;;;;;;;8.80;5.82;;;22.20;99.90;;;;;;5108601;28;20062;-58
2023/08/18 10:59:46;;;;;;;8.40;5.85;;;22.30;99.90;;;;;;5106160;28;20039;-60
2023/08/18 11:02:13;;;;;;;9.18;6.53;;;22.30;99.90;;;;;;5105540;28;20070;-59
2023/08/18 11:04:39;;;;;;;8.23;5.68;;;22.40;99.90;;;;;;5105250;27;20048;-59
2023/08/18 11:07:05;;;;;;;8.80;5.65;;;22.30;99.90;;;;;;5094051;28;20047;-57
2023/08/18 11:09:36;;;;;;;15.60;6.43;;;22.40;99.90;;;;;;5107630;27;20464;-60
2023/08/18 11:12:03;;;;;;;6.57;5.35;;;22.40;99.90;;;;;;5108365;28;20035;-59
2023/08/18 11:14:30;;;;;;;9.85;6.40;;;22.50;99.90;;;;;;5105986;27;20071;-59
2023/08/18 11:16:56;;;;;;;11.07;6.53;;;22.50;99.90;;;;;;5108333;27;20512;-60
2023/08/18 11:19:22;;;;;;;7.47;5.95;;;22.60;99.90;;;;;;5106952;27;20040;-60
2023/08/18 11:21:47;;;;;;;9.80;5.75;;;22.60;99.90;;;;;;5078678;28;20055;-59
2023/08/18 11:24:13;;;;;;;8.57;5.30;;;22.70;99.90;;;;;;5107461;28;20043;-60
2023/08/18 11:26:39;;;;;;;7.85;5.47;;;22.90;99.90;;;;;;5107725;27;20092;-60
2023/08/18 11:29:08;;;;;;;8.57;5.80;;;23.10;99.90;;;;;;5106599;28;20043;-60
2023/08/18 11:31:33;;;;;;;10.95;6.07;;;23.20;99.90;;;;;;5104702;27;20044;-59
2023/08/18 11:34:00;;;;;;;8.15;5.57;;;23.20;99.90;;;;;;5107959;28;20050;-60
2023/08/18 11:36:30;;;;;;;6.97;5.60;;;23.30;99.90;;;;;;5090106;28;20112;-59
2023/08/18 11:39:02;;;;;;;6.80;5.80;;;23.40;99.90;;;;;;5089375;28;20424;-59
2023/08/18 11:41:38;;;;;;;8.00;5.65;;;23.40;99.90;;;;;;5107128;28;20130;-58
2023/08/18 11:44:06;;;;;;;9.85;5.55;;;23.50;99.90;;;;;;5106355;28;20039;-59
2023/08/18 11:46:34;;;;;;;6.30;5.25;;;23.60;99.90;;;;;;5107990;28;20036;-60
2023/08/18 11:49:02;;;;;;;7.18;5.13;;;23.60;99.90;;;;;;5107716;27;20050;-60
2023/08/18 11:51:28;;;;;;;6.15;5.47;;;23.70;99.90;;;;;;5090162;27;20359;-60
2023/08/18 11:53:54;;;;;;;8.52;5.68;;;23.80;99.90;;;;;;5108039;28;20174;-58
2023/08/18 11:56:20;;;;;;;10.13;5.78;;;23.90;99.90;;;;;;5107350;28;20036;-60
2023/08/18 11:58:46;;;;;;;8.07;5.22;;;24.10;99.90;;;;;;5107323;27;20475;-59
2023/08/18 12:01:12;;;;;;;9.65;5.32;;;24.30;99.90;;;;;;5108544;28;20052;-60
2023/08/18 12:03:39;;;;;;;10.63;5.20;;;24.40;99.90;;;;;;5108810;28;20122;-57
2023/08/18 12:06:05;;;;;;;8.40;6.30;;;24.50;99.90;;;;;;5107446;28;20043;-59
2023/08/18 12:08:31;;;;;;;9.20;5.40;;;24.60;99.90;;;;;;5105557;28;20508;-59
2023/08/18 12:10:57;;;;;;;7.50;5.60;;;24.60;99.90;;;;;;5107865;27;20047;-60
2023/08/18 12:13:27;;;;;;;9.43;5.72;;;24.60;99.90;;;;;;5108004;28;20042;-60
2023/08/18 12:15:53;;;;;;;9.82;5.82;;;24.60;99.90;;;;;;5092239;28;20039;-58
2023/08/18 12:18:19;;;;;;;6.57;4.95;;;24.70;99.90;;;;;;5108929;28;20052;-59
2023/08/18 12:20:45;;;;;;;7.82;5.97;;;24.70;99.90;;;;;;5107874;28;20138;-60
2023/08/18 12:23:10;;;;;;;8.88;5.82;;;24.80;99.90;;;;;;5109425;28;20187;-60
2023/08/18 12:25:36;;;;;;;7.55;5.30;;;24.80;99.90;;;;;;5109915;28;20036;-58
2023/08/18 12:28:03;;;;;;;9.18;6.10;;;24.80;99.90;;;;;;5110333;28;20043;-60
2023/08/18 12:30:29;;;;;;;8.23;6.35;;;24.80;99.90;;;;;;5110418;28;20075;-60
2023/08/18 12:32:55;;;;;;;6.85;5.55;;;24.80;99.90;;;;;;5108478;28;20035;-59
2023/08/18 12:35:20;;;;;;;7.10;6.10;;;24.80;99.90;;;;;;5079246;28;20042;-59
2023/08/18 12:37:46;;;;;;;6.97;5.70;;;24.80;99.90;;;;;;5108675;28;20076;-58
2023/08/18 12:40:12;;;;;;;8.30;5.50;;;24.80;99.90;;;;;;5111458;28;20051;-60
2023/08/18 12:42:38;;;;;;;8.70;6.10;;;24.80;99.90;;;;;;5109054;28;20047;-60